KLRJ/LRJ METAR and TAF weather

Enter ICAO airport designator
Station Type Date Time Source
KLRJ METAR 2021/07/30 22:15 UTC NOAA

KLRJ 302215Z AUTO 01010G18KT 340V040 2SM -RA FEW045 BKN060 OVC070 18/16 A3017 RMK AO2


Station Type Date Time Source
KLRJ Decoded METAR 2021/07/30 22:15 UTC NOAA

Le Mars, Le Mars Municipal Airport, IA, United States (KLRJ) 42-46-41N 096-11-37W
Jul 30, 2021 - 06:15 PM EDT / 2021.07.30 2215 UTC
Wind: from the N (010 degrees) at 12 MPH (10 KT) gusting to 21 MPH (18 KT) (direction variable):0
Visibility: 2 mile(s):0
Sky conditions: overcast
Weather: light rain
Temperature: 64 F (18 C)
Dew Point: 60 F (16 C)
Relative Humidity: 88%
Pressure (altimeter): 30.17 in. Hg (1021 hPa)
ob: KLRJ 302215Z AUTO 01010G18KT 340V040 2SM -RA FEW045 BKN060 OVC070 18/16 A3017 RMK AO2
cycle: 22

Station Type Date Time Source
KLRJ TAF UTC NOAA

Error!

Example: see airport list